createdAt,value
2022-08-21T00:00:29.921Z,21.76
2022-08-21T00:01:15.924Z,21.75
2022-08-21T00:01:49.457Z,21.74
2022-08-21T00:02:26.986Z,21.73
2022-08-21T00:03:06.678Z,21.73
2022-08-21T00:03:40.567Z,21.72
2022-08-21T00:04:20.915Z,21.71
2022-08-21T00:04:57.965Z,21.71
2022-08-21T00:05:34.304Z,21.70
2022-08-21T00:06:07.874Z,21.69
2022-08-21T00:06:47.322Z,21.69
2022-08-21T00:07:20.815Z,21.68
2022-08-21T00:07:54.983Z,21.68
2022-08-21T00:08:28.241Z,21.66
2022-08-21T00:09:06.291Z,21.65
2022-08-21T00:09:41.710Z,21.63
2022-08-21T00:10:16.284Z,21.62
2022-08-21T00:10:49.832Z,21.61
2022-08-21T00:11:23.076Z,21.61
2022-08-21T00:11:56.290Z,21.61
2022-08-21T00:12:29.653Z,21.61
2022-08-21T00:13:06.316Z,21.60
2022-08-21T00:13:39.907Z,21.60
2022-08-21T00:14:14.708Z,21.59
2022-08-21T00:14:48.788Z,21.59
2022-08-21T00:15:30.679Z,21.58
2022-08-21T00:16:05.468Z,21.57
2022-08-21T00:16:39.867Z,21.56
2022-08-21T00:17:13.096Z,21.55
2022-08-21T00:17:46.455Z,21.55
2022-08-21T00:18:21.351Z,21.55
2022-08-21T00:18:54.679Z,21.54
2022-08-21T00:19:28.511Z,21.54
2022-08-21T00:20:02.121Z,21.53
2022-08-21T00:20:36.308Z,21.53
2022-08-21T00:21:09.741Z,21.53
2022-08-21T00:21:44.306Z,21.52
2022-08-21T00:22:19.071Z,21.52
2022-08-21T00:22:54.217Z,21.51
2022-08-21T00:23:28.609Z,21.50
2022-08-21T00:24:02.478Z,21.51
2022-08-21T00:24:35.950Z,21.51
2022-08-21T00:25:11.014Z,21.51
2022-08-21T00:25:45.690Z,21.51
2022-08-21T00:26:20.652Z,21.51
2022-08-21T00:26:54.419Z,21.50
2022-08-21T00:27:27.540Z,21.50
2022-08-21T00:28:00.649Z,21.49
2022-08-21T00:28:33.906Z,21.49
2022-08-21T00:29:07.095Z,21.48
2022-08-21T00:29:40.195Z,21.47
2022-08-21T00:30:17.713Z,21.47
2022-08-21T00:30:57.789Z,21.46
2022-08-21T00:31:31.136Z,21.44
2022-08-21T00:32:04.592Z,21.43
2022-08-21T00:32:40.099Z,21.41
2022-08-21T00:33:14.485Z,21.39
2022-08-21T00:33:47.738Z,21.38
2022-08-21T00:34:21.069Z,21.37
2022-08-21T00:34:54.873Z,21.36
2022-08-21T00:35:33.737Z,21.35
2022-08-21T00:36:07.151Z,21.34
2022-08-21T00:36:40.783Z,21.33
2022-08-21T00:37:17.475Z,21.33
2022-08-21T00:37:50.889Z,21.32
2022-08-21T00:38:24.769Z,21.31
2022-08-21T00:38:58.489Z,21.30
2022-08-21T00:39:32.003Z,21.30
2022-08-21T00:40:08.258Z,21.30
2022-08-21T00:40:49.290Z,21.29
2022-08-21T00:41:38.648Z,21.28
2022-08-21T00:42:16.214Z,21.26
2022-08-21T00:42:53.461Z,21.24
2022-08-21T00:43:31.665Z,21.24
2022-08-21T00:44:06.730Z,21.23
2022-08-21T00:44:39.874Z,21.23
2022-08-21T00:45:13.561Z,21.22
2022-08-21T00:45:47.477Z,21.22
2022-08-21T00:46:21.319Z,21.22
2022-08-21T00:46:58.479Z,21.22
2022-08-21T00:47:31.718Z,21.22
2022-08-21T00:48:06.001Z,21.22
2022-08-21T00:48:39.136Z,21.22
2022-08-21T00:49:14.457Z,21.22
2022-08-21T00:49:47.609Z,21.22
2022-08-21T00:50:22.370Z,21.21
2022-08-21T00:51:03.705Z,21.21
2022-08-21T00:51:57.067Z,21.20
2022-08-21T00:52:33.763Z,21.19
2022-08-21T00:53:09.228Z,21.17
2022-08-21T00:53:48.042Z,21.16
2022-08-21T00:54:29.553Z,21.15
2022-08-21T00:55:04.098Z,21.14
2022-08-21T00:55:38.521Z,21.14
2022-08-21T00:56:14.756Z,21.14
2022-08-21T00:56:54.153Z,21.13
2022-08-21T00:57:35.222Z,21.12
2022-08-21T00:58:10.740Z,21.10
2022-08-21T00:58:44.322Z,21.09
2022-08-21T00:59:20.616Z,21.09
2022-08-21T00:59:56.670Z,21.09
2022-08-21T01:00:34.328Z,21.08
2022-08-21T01:01:09.110Z,21.07
2022-08-21T01:01:42.364Z,21.05
2022-08-21T01:02:19.514Z,21.05
2022-08-21T01:02:52.854Z,21.05
2022-08-21T01:03:26.713Z,21.04
2022-08-21T01:03:59.947Z,21.04
2022-08-21T01:04:33.551Z,21.04
2022-08-21T01:05:07.923Z,21.03
2022-08-21T01:05:41.797Z,21.02
2022-08-21T01:06:14.942Z,21.02
2022-08-21T01:06:48.088Z,21.01
2022-08-21T01:07:21.382Z,21.00
2022-08-21T01:07:58.226Z,21.00
2022-08-21T01:08:32.534Z,20.99
2022-08-21T01:09:05.851Z,20.98
2022-08-21T01:09:40.076Z,20.99
2022-08-21T01:10:24.004Z,20.98
2022-08-21T01:11:00.623Z,20.96
2022-08-21T01:11:37.219Z,20.95
2022-08-21T01:12:12.870Z,20.93
2022-08-21T01:12:46.363Z,20.92
2022-08-21T01:13:20.765Z,20.92
2022-08-21T01:13:56.926Z,20.91
2022-08-21T01:14:31.240Z,20.88
2022-08-21T01:15:06.095Z,20.87
2022-08-21T01:15:43.529Z,20.85
2022-08-21T01:16:20.100Z,20.85
2022-08-21T01:16:55.648Z,20.84
2022-08-21T01:17:29.888Z,20.82
2022-08-21T01:18:09.881Z,20.79
2022-08-21T01:18:43.725Z,20.76
2022-08-21T01:19:19.521Z,20.73
2022-08-21T01:19:52.806Z,20.72
2022-08-21T01:20:32.752Z,20.69
2022-08-21T01:21:28.289Z,20.68
2022-08-21T01:22:01.773Z,20.64
2022-08-21T01:22:35.661Z,20.62
2022-08-21T01:23:08.980Z,20.61
2022-08-21T01:23:45.514Z,20.60
2022-08-21T01:24:19.000Z,20.60
2022-08-21T01:24:52.568Z,20.60
2022-08-21T01:25:25.990Z,20.59
2022-08-21T01:25:59.633Z,20.58
2022-08-21T01:26:38.497Z,20.58
2022-08-21T01:27:12.179Z,20.57
2022-08-21T01:27:45.381Z,20.55
2022-08-21T01:28:19.499Z,20.55
2022-08-21T01:28:58.509Z,20.53
2022-08-21T01:29:35.449Z,20.53
2022-08-21T01:30:22.218Z,20.52
2022-08-21T01:30:56.389Z,20.51
2022-08-21T01:31:30.223Z,20.51
2022-08-21T01:32:14.860Z,20.50
2022-08-21T01:32:49.111Z,20.50
2022-08-21T01:33:25.568Z,20.50
2022-08-21T01:33:59.145Z,20.50
2022-08-21T01:34:35.153Z,20.50
2022-08-21T01:35:09.211Z,20.50
2022-08-21T01:35:42.489Z,20.50
2022-08-21T01:36:15.704Z,20.51
2022-08-21T01:36:49.284Z,20.52
2022-08-21T01:37:23.904Z,20.51
2022-08-21T01:37:57.177Z,20.51
2022-08-21T01:38:30.330Z,20.52
2022-08-21T01:39:06.162Z,20.52
2022-08-21T01:39:39.968Z,20.52
2022-08-21T01:40:14.099Z,20.53
2022-08-21T01:40:47.728Z,20.53
2022-08-21T01:41:21.369Z,20.53
2022-08-21T01:41:54.804Z,20.54
2022-08-21T01:42:28.272Z,20.55
2022-08-21T01:43:01.495Z,20.55
2022-08-21T01:43:39.701Z,20.55
2022-08-21T01:44:13.195Z,20.54
2022-08-21T01:44:46.370Z,20.53
2022-08-21T01:45:20.230Z,20.53
2022-08-21T01:45:53.472Z,20.52
2022-08-21T01:46:26.809Z,20.53
2022-08-21T01:47:03.285Z,20.53
2022-08-21T01:47:37.773Z,20.54
2022-08-21T01:48:10.984Z,20.53
2022-08-21T01:48:44.421Z,20.53
2022-08-21T01:49:18.576Z,20.53
2022-08-21T01:49:51.897Z,20.53
2022-08-21T01:50:25.672Z,20.54
2022-08-21T01:51:00.060Z,20.53
2022-08-21T01:51:33.780Z,20.53
2022-08-21T01:52:09.504Z,20.52
2022-08-21T01:52:43.053Z,20.51
2022-08-21T01:53:16.685Z,20.51
2022-08-21T01:53:49.959Z,20.50
2022-08-21T01:54:23.484Z,20.50
2022-08-21T01:54:56.534Z,20.50
2022-08-21T01:55:29.813Z,20.49
2022-08-21T01:56:12.288Z,20.49
2022-08-21T01:56:49.800Z,20.46
2022-08-21T01:57:26.092Z,20.44
2022-08-21T01:58:00.413Z,20.43
2022-08-21T01:58:34.975Z,20.42
2022-08-21T01:59:09.201Z,20.40
2022-08-21T01:59:42.779Z,20.40
2022-08-21T02:00:20.026Z,20.39
2022-08-21T02:00:53.401Z,20.38
2022-08-21T02:01:27.420Z,20.37
2022-08-21T02:02:00.727Z,20.37
2022-08-21T02:02:33.933Z,20.38
2022-08-21T02:03:07.320Z,20.38
2022-08-21T02:03:40.972Z,20.38
2022-08-21T02:04:14.046Z,20.39
2022-08-21T02:04:47.219Z,20.38
2022-08-21T02:05:20.898Z,20.38
2022-08-21T02:05:54.029Z,20.38
2022-08-21T02:06:28.975Z,20.38
2022-08-21T02:07:03.424Z,20.38
2022-08-21T02:07:41.970Z,20.38
2022-08-21T02:08:15.124Z,20.38
2022-08-21T02:08:48.557Z,20.37
2022-08-21T02:09:22.878Z,20.38
2022-08-21T02:09:57.609Z,20.37
2022-08-21T02:10:33.481Z,20.37
2022-08-21T02:11:06.823Z,20.37
2022-08-21T02:11:41.688Z,20.37
2022-08-21T02:12:14.979Z,20.37
2022-08-21T02:12:48.176Z,20.37
2022-08-21T02:13:21.674Z,20.36
2022-08-21T02:13:54.795Z,20.35
2022-08-21T02:14:32.870Z,20.35
2022-08-21T02:15:08.539Z,20.34
2022-08-21T02:15:41.724Z,20.33
2022-08-21T02:16:19.117Z,20.32
2022-08-21T02:16:52.813Z,20.32
2022-08-21T02:17:40.294Z,20.30
2022-08-21T02:18:13.683Z,20.28
2022-08-21T02:18:47.501Z,20.27
2022-08-21T02:19:20.682Z,20.27
2022-08-21T02:19:53.914Z,20.27
2022-08-21T02:20:36.741Z,20.27
2022-08-21T02:21:10.392Z,20.27
2022-08-21T02:21:44.352Z,20.27
2022-08-21T02:22:17.562Z,20.27
2022-08-21T02:22:50.934Z,20.26
2022-08-21T02:23:27.306Z,20.27
2022-08-21T02:24:00.954Z,20.27
2022-08-21T02:24:34.070Z,20.27
2022-08-21T02:25:08.433Z,20.27
2022-08-21T02:25:41.964Z,20.27
2022-08-21T02:26:15.245Z,20.26
2022-08-21T02:26:48.468Z,20.25
2022-08-21T02:27:26.329Z,20.26
2022-08-21T02:28:03.937Z,20.25
2022-08-21T02:28:39.212Z,20.25
2022-08-21T02:29:12.766Z,20.24
2022-08-21T02:29:46.002Z,20.23
2022-08-21T02:30:24.744Z,20.24
2022-08-21T02:30:58.196Z,20.24
2022-08-21T02:31:32.603Z,20.24
2022-08-21T02:32:05.904Z,20.23
2022-08-21T02:32:38.967Z,20.22
2022-08-21T02:33:13.020Z,20.23
2022-08-21T02:33:46.200Z,20.23
2022-08-21T02:34:19.407Z,20.23
2022-08-21T02:34:52.610Z,20.23
2022-08-21T02:35:26.389Z,20.23
2022-08-21T02:35:59.959Z,20.23
2022-08-21T02:36:33.300Z,20.23
2022-08-21T02:37:06.465Z,20.23
2022-08-21T02:37:49.195Z,20.23
2022-08-21T02:38:30.722Z,20.23
2022-08-21T02:39:04.470Z,20.22
2022-08-21T02:39:37.869Z,20.22
2022-08-21T02:40:12.598Z,20.22
2022-08-21T02:40:51.119Z,20.20
2022-08-21T02:41:24.847Z,20.20
2022-08-21T02:41:58.082Z,20.18
2022-08-21T02:42:33.180Z,20.19
2022-08-21T02:43:07.858Z,20.18
2022-08-21T02:43:41.633Z,20.18
2022-08-21T02:44:14.740Z,20.16
2022-08-21T02:44:48.029Z,20.15
2022-08-21T02:45:21.964Z,20.15
2022-08-21T02:45:57.680Z,20.15
2022-08-21T02:46:31.861Z,20.13
2022-08-21T02:47:05.468Z,20.11
2022-08-21T02:47:38.976Z,20.10
2022-08-21T02:48:15.940Z,20.11
2022-08-21T02:48:49.245Z,20.10
2022-08-21T02:49:22.423Z,20.09
2022-08-21T02:49:55.869Z,20.08
2022-08-21T02:50:32.933Z,20.07
2022-08-21T02:51:10.178Z,20.05
2022-08-21T02:51:43.480Z,20.03
2022-08-21T02:52:16.611Z,20.01
2022-08-21T02:52:51.934Z,20.01
2022-08-21T02:53:30.206Z,20.00
2022-08-21T02:54:03.656Z,20.00
2022-08-21T02:54:36.908Z,20.00
2022-08-21T02:55:10.158Z,20.00
2022-08-21T02:55:46.479Z,20.00
2022-08-21T02:56:22.536Z,20.00
2022-08-21T02:56:55.750Z,19.98
2022-08-21T02:57:29.126Z,19.97
2022-08-21T02:58:03.706Z,19.96
2022-08-21T02:58:50.388Z,19.94
2022-08-21T02:59:23.584Z,19.93
2022-08-21T02:59:56.772Z,19.91
2022-08-21T03:00:32.020Z,19.90
2022-08-21T03:01:06.143Z,19.91
2022-08-21T03:01:39.366Z,19.91
2022-08-21T03:02:12.755Z,19.92
2022-08-21T03:02:47.839Z,19.93
2022-08-21T03:03:22.352Z,19.94
2022-08-21T03:03:55.405Z,19.94
2022-08-21T03:04:28.501Z,19.95
2022-08-21T03:05:01.848Z,19.95
2022-08-21T03:05:38.644Z,19.94
2022-08-21T03:06:16.343Z,19.94
2022-08-21T03:06:49.658Z,19.92
2022-08-21T03:07:23.007Z,19.90
2022-08-21T03:07:56.462Z,19.89
2022-08-21T03:08:29.617Z,19.88
2022-08-21T03:09:02.917Z,19.88
2022-08-21T03:09:36.223Z,19.87
2022-08-21T03:10:10.141Z,19.86
2022-08-21T03:10:47.577Z,19.86
2022-08-21T03:11:22.030Z,19.86
2022-08-21T03:11:55.219Z,19.86
2022-08-21T03:12:29.972Z,19.86
2022-08-21T03:13:04.420Z,19.86
2022-08-21T03:13:37.621Z,19.86
2022-08-21T03:14:10.876Z,19.86
2022-08-21T03:14:44.084Z,19.86
2022-08-21T03:15:20.560Z,19.87
2022-08-21T03:15:53.861Z,19.86
2022-08-21T03:16:27.011Z,19.87
2022-08-21T03:17:00.380Z,19.86
2022-08-21T03:17:34.233Z,19.86
2022-08-21T03:18:08.686Z,19.86
2022-08-21T03:18:42.255Z,19.86
2022-08-21T03:19:15.453Z,19.86
2022-08-21T03:19:48.612Z,19.85
2022-08-21T03:20:28.928Z,19.85
2022-08-21T03:21:02.340Z,19.85
2022-08-21T03:21:35.494Z,19.85
2022-08-21T03:22:09.019Z,19.85
2022-08-21T03:22:42.365Z,19.85
2022-08-21T03:23:22.105Z,19.84
2022-08-21T03:23:55.539Z,19.84
2022-08-21T03:24:28.683Z,19.83
2022-08-21T03:25:02.358Z,19.83
2022-08-21T03:25:41.171Z,19.83
2022-08-21T03:26:14.473Z,19.83
2022-08-21T03:26:49.446Z,19.84
2022-08-21T03:27:23.267Z,19.84
2022-08-21T03:27:59.255Z,19.84
2022-08-21T03:28:33.699Z,19.84
2022-08-21T03:29:08.743Z,19.82
2022-08-21T03:29:42.279Z,19.83
2022-08-21T03:30:17.885Z,19.84
2022-08-21T03:30:52.557Z,19.84
2022-08-21T03:31:30.365Z,19.84
2022-08-21T03:32:04.116Z,19.84
2022-08-21T03:32:37.531Z,19.84
2022-08-21T03:33:12.292Z,19.84
2022-08-21T03:33:48.832Z,19.84
2022-08-21T03:34:22.547Z,19.83
2022-08-21T03:34:55.636Z,19.82
2022-08-21T03:35:30.195Z,19.83
2022-08-21T03:36:07.222Z,19.83
2022-08-21T03:36:40.441Z,19.82
2022-08-21T03:37:15.105Z,19.82
2022-08-21T03:37:48.447Z,19.82
2022-08-21T03:38:26.358Z,19.81
2022-08-21T03:39:00.368Z,19.80
2022-08-21T03:39:34.513Z,19.79
2022-08-21T03:40:14.917Z,19.79
2022-08-21T03:40:48.073Z,19.79
2022-08-21T03:41:21.589Z,19.78
2022-08-21T03:41:55.388Z,19.78
2022-08-21T03:42:28.693Z,19.78
2022-08-21T03:43:01.861Z,19.79
2022-08-21T03:43:35.948Z,19.79
2022-08-21T03:44:09.628Z,19.79
2022-08-21T03:44:42.781Z,19.79
2022-08-21T03:45:18.186Z,19.80
2022-08-21T03:45:52.661Z,19.80
2022-08-21T03:46:26.192Z,19.82
2022-08-21T03:46:59.733Z,19.82
2022-08-21T03:47:33.142Z,19.84
2022-08-21T03:48:07.494Z,19.85
2022-08-21T03:48:41.302Z,19.86
2022-08-21T03:49:14.696Z,19.86
2022-08-21T03:49:47.860Z,19.85
2022-08-21T03:50:21.211Z,19.84
2022-08-21T03:50:55.216Z,19.85
2022-08-21T03:51:28.446Z,19.85
2022-08-21T03:52:02.368Z,19.86
2022-08-21T03:52:35.593Z,19.86
2022-08-21T03:53:17.546Z,19.87
2022-08-21T03:53:51.406Z,19.87
2022-08-21T03:54:24.590Z,19.88
2022-08-21T03:54:57.879Z,19.89
2022-08-21T03:55:31.160Z,19.89
2022-08-21T03:56:05.898Z,19.90
2022-08-21T03:56:40.473Z,19.91
2022-08-21T03:57:13.930Z,19.92
2022-08-21T03:57:47.109Z,19.93
2022-08-21T03:58:24.025Z,19.93
2022-08-21T03:58:57.741Z,19.93
2022-08-21T03:59:31.114Z,19.93
2022-08-21T04:00:06.076Z,19.94
2022-08-21T04:00:39.388Z,19.94
2022-08-21T04:01:13.859Z,19.95
2022-08-21T04:02:02.515Z,19.96
2022-08-21T04:02:35.809Z,19.97
2022-08-21T04:03:08.949Z,19.97
2022-08-21T04:03:42.455Z,19.99
2022-08-21T04:04:15.636Z,20.00
2022-08-21T04:04:48.819Z,20.01
2022-08-21T04:05:31.508Z,20.03
2022-08-21T04:06:06.090Z,20.03
2022-08-21T04:06:39.349Z,20.03
2022-08-21T04:07:12.465Z,20.03
2022-08-21T04:07:45.516Z,20.04
2022-08-21T04:08:20.029Z,20.05
2022-08-21T04:08:54.754Z,20.06
2022-08-21T04:09:28.356Z,20.07
2022-08-21T04:10:01.499Z,20.08
2022-08-21T04:10:39.564Z,20.08
2022-08-21T04:11:12.887Z,20.10
2022-08-21T04:11:47.440Z,20.10
2022-08-21T04:12:22.365Z,20.11
2022-08-21T04:12:56.927Z,20.12
2022-08-21T04:13:30.308Z,20.13
2022-08-21T04:14:04.526Z,20.14
2022-08-21T04:14:38.507Z,20.16
2022-08-21T04:15:12.192Z,20.17
2022-08-21T04:15:45.385Z,20.18
2022-08-21T04:16:19.464Z,20.19
2022-08-21T04:16:52.926Z,20.20
2022-08-21T04:17:26.208Z,20.21
2022-08-21T04:18:00.241Z,20.22
2022-08-21T04:18:33.445Z,20.22
2022-08-21T04:19:06.672Z,20.23
2022-08-21T04:19:39.993Z,20.24
2022-08-21T04:20:13.983Z,20.26
2022-08-21T04:20:51.718Z,20.27
2022-08-21T04:21:25.354Z,20.29
2022-08-21T04:21:58.657Z,20.30
2022-08-21T04:22:31.895Z,20.31
2022-08-21T04:23:05.267Z,20.32
2022-08-21T04:23:38.798Z,20.33
2022-08-21T04:24:12.164Z,20.34
2022-08-21T04:24:46.074Z,20.35
2022-08-21T04:25:21.552Z,20.35
2022-08-21T04:25:56.844Z,20.36
2022-08-21T04:26:30.094Z,20.37
2022-08-21T04:27:03.469Z,20.38
2022-08-21T04:27:36.557Z,20.39
2022-08-21T04:28:09.757Z,20.39
2022-08-21T04:28:42.887Z,20.40
2022-08-21T04:29:17.802Z,20.42
2022-08-21T04:29:51.074Z,20.43
2022-08-21T04:30:28.557Z,20.44
2022-08-21T04:31:02.330Z,20.46
2022-08-21T04:31:40.309Z,20.47
2022-08-21T04:32:13.577Z,20.48
2022-08-21T04:32:51.599Z,20.50
2022-08-21T04:33:25.618Z,20.51
2022-08-21T04:33:58.938Z,20.52
2022-08-21T04:34:33.524Z,20.53
2022-08-21T04:35:10.799Z,20.55
2022-08-21T04:35:44.570Z,20.57
2022-08-21T04:36:18.357Z,20.58
2022-08-21T04:36:56.306Z,20.59
2022-08-21T04:37:29.824Z,20.60
2022-08-21T04:38:02.935Z,20.61
2022-08-21T04:38:37.713Z,20.62
2022-08-21T04:39:11.944Z,20.64
2022-08-21T04:39:45.153Z,20.63
2022-08-21T04:40:21.131Z,20.64
2022-08-21T04:40:55.041Z,20.65
2022-08-21T04:41:28.603Z,20.66
2022-08-21T04:42:02.425Z,20.68
2022-08-21T04:42:43.723Z,20.70
2022-08-21T04:43:17.524Z,20.70
2022-08-21T04:43:51.239Z,20.72
2022-08-21T04:44:24.764Z,20.72
2022-08-21T04:44:58.779Z,20.73
2022-08-21T04:45:37.817Z,20.74
2022-08-21T04:46:13.506Z,20.75
2022-08-21T04:46:47.188Z,20.75
2022-08-21T04:47:21.068Z,20.75
2022-08-21T04:47:56.932Z,20.77
2022-08-21T04:48:30.277Z,20.79
2022-08-21T04:49:03.570Z,20.80
2022-08-21T04:49:37.346Z,20.81
2022-08-21T04:50:10.552Z,20.83
2022-08-21T04:51:03.357Z,20.84
2022-08-21T04:51:39.545Z,20.86
2022-08-21T04:52:17.413Z,20.87
2022-08-21T04:52:50.733Z,20.89
2022-08-21T04:53:33.280Z,20.91
2022-08-21T04:54:15.943Z,20.92
2022-08-21T04:54:54.811Z,20.94
2022-08-21T04:55:29.655Z,20.96
2022-08-21T04:56:09.480Z,20.97
2022-08-21T04:57:09.330Z,20.99
2022-08-21T04:57:48.732Z,21.00
2022-08-21T04:58:26.673Z,21.01
2022-08-21T04:59:04.380Z,21.02
2022-08-21T04:59:42.169Z,21.04
2022-08-21T05:00:16.211Z,21.05
2022-08-21T05:00:49.996Z,21.07
2022-08-21T05:01:25.950Z,21.08
2022-08-21T05:01:59.814Z,21.10
2022-08-21T05:02:34.399Z,21.11
2022-08-21T05:03:10.079Z,21.13
2022-08-21T05:03:43.692Z,21.16
2022-08-21T05:04:23.760Z,21.18
2022-08-21T05:04:57.132Z,21.20
2022-08-21T05:05:30.730Z,21.21
2022-08-21T05:06:10.684Z,21.23
2022-08-21T05:06:48.438Z,21.26
2022-08-21T05:07:41.620Z,21.27
2022-08-21T05:08:20.714Z,21.28
2022-08-21T05:09:01.780Z,21.30
2022-08-21T05:09:36.485Z,21.31
2022-08-21T05:10:12.542Z,21.33
2022-08-21T05:10:46.717Z,21.35
2022-08-21T05:11:21.382Z,21.37
2022-08-21T05:11:55.870Z,21.39
2022-08-21T05:12:29.007Z,21.41
2022-08-21T05:13:02.413Z,21.43
2022-08-21T05:13:37.111Z,21.46
2022-08-21T05:14:12.651Z,21.47
2022-08-21T05:14:46.014Z,21.48
2022-08-21T05:15:19.175Z,21.50
2022-08-21T05:15:52.463Z,21.50
2022-08-21T05:16:36.760Z,21.50
2022-08-21T05:17:12.110Z,21.50
2022-08-21T05:17:52.555Z,21.50
2022-08-21T05:18:34.922Z,21.53
2022-08-21T05:19:08.558Z,21.53
2022-08-21T05:19:41.745Z,21.55
2022-08-21T05:20:16.030Z,21.57
2022-08-21T05:20:49.213Z,21.59
2022-08-21T05:21:22.382Z,21.60
2022-08-21T05:21:56.374Z,21.60
2022-08-21T05:22:29.685Z,21.62
2022-08-21T05:23:11.266Z,21.63
2022-08-21T05:23:44.458Z,21.64
2022-08-21T05:24:19.580Z,21.66
2022-08-21T05:24:53.956Z,21.67
2022-08-21T05:25:28.221Z,21.68
2022-08-21T05:26:02.443Z,21.70
2022-08-21T05:26:45.490Z,21.73
2022-08-21T05:27:20.494Z,21.74
2022-08-21T05:27:54.688Z,21.77
2022-08-21T05:28:28.309Z,21.80
2022-08-21T05:29:01.574Z,21.82
2022-08-21T05:29:35.643Z,21.83
2022-08-21T05:30:11.543Z,21.83
2022-08-21T05:30:45.542Z,21.84
2022-08-21T05:31:19.130Z,21.85
2022-08-21T05:31:52.304Z,21.88
2022-08-21T05:32:26.632Z,21.89
2022-08-21T05:33:01.598Z,21.91
2022-08-21T05:33:34.941Z,21.93
2022-08-21T05:34:09.367Z,21.95
2022-08-21T05:34:43.474Z,21.98
2022-08-21T05:35:16.819Z,22.00
2022-08-21T05:35:56.846Z,22.02
2022-08-21T05:36:30.117Z,22.06
2022-08-21T05:37:07.563Z,22.07
2022-08-21T05:37:41.556Z,22.09
2022-08-21T05:38:16.630Z,22.12
2022-08-21T05:38:51.467Z,22.15
2022-08-21T05:39:24.649Z,22.16
2022-08-21T05:40:09.600Z,22.16
2022-08-21T05:40:51.097Z,22.18
2022-08-21T05:41:24.351Z,22.19
2022-08-21T05:41:57.942Z,22.22
2022-08-21T05:42:31.942Z,22.24
2022-08-21T05:43:05.355Z,22.27
2022-08-21T05:43:38.805Z,22.28
2022-08-21T05:44:12.420Z,22.30
2022-08-21T05:44:45.546Z,22.31
2022-08-21T05:45:18.960Z,22.31
2022-08-21T05:46:12.740Z,22.35
2022-08-21T05:46:45.969Z,22.36
2022-08-21T05:47:19.950Z,22.39
2022-08-21T05:47:53.271Z,22.41
2022-08-21T05:48:26.563Z,22.42
2022-08-21T05:48:59.878Z,22.44
2022-08-21T05:49:33.439Z,22.46
2022-08-21T05:50:07.337Z,22.47
2022-08-21T05:50:41.316Z,22.47
2022-08-21T05:51:16.528Z,22.47
2022-08-21T05:51:49.927Z,22.46
2022-08-21T05:52:23.457Z,22.48
2022-08-21T05:52:58.417Z,22.48
2022-08-21T05:53:43.282Z,22.49
2022-08-21T05:54:16.683Z,22.50
2022-08-21T05:54:55.084Z,22.51
2022-08-21T05:55:28.426Z,22.54
2022-08-21T05:56:08.075Z,22.56
2022-08-21T05:56:41.267Z,22.58
2022-08-21T05:57:14.483Z,22.61
2022-08-21T05:57:47.602Z,22.64
2022-08-21T05:58:24.388Z,22.66
2022-08-21T05:58:57.673Z,22.66
2022-08-21T05:59:30.942Z,22.67
2022-08-21T06:00:05.722Z,22.69
2022-08-21T06:00:39.056Z,22.71
2022-08-21T06:01:12.258Z,22.74
2022-08-21T06:01:46.658Z,22.77
2022-08-21T06:02:21.467Z,22.80
2022-08-21T06:02:54.836Z,22.82
2022-08-21T06:03:31.637Z,22.84
2022-08-21T06:04:04.829Z,22.86
2022-08-21T06:04:40.149Z,22.88
2022-08-21T06:05:13.758Z,22.91
2022-08-21T06:05:58.468Z,22.94
2022-08-21T06:06:31.854Z,22.96
2022-08-21T06:07:05.314Z,22.97
2022-08-21T06:07:38.733Z,23.00
2022-08-21T06:08:12.218Z,23.02
2022-08-21T06:08:45.913Z,23.03
2022-08-21T06:09:19.001Z,23.06
2022-08-21T06:09:52.160Z,23.08
2022-08-21T06:10:25.545Z,23.10
2022-08-21T06:11:01.115Z,23.11
2022-08-21T06:11:34.653Z,23.14
2022-08-21T06:12:13.131Z,23.16
2022-08-21T06:12:46.371Z,23.19
2022-08-21T06:13:21.087Z,23.21
2022-08-21T06:13:54.627Z,23.23
2022-08-21T06:14:27.795Z,23.26
2022-08-21T06:15:01.149Z,23.28
2022-08-21T06:15:36.109Z,23.28
2022-08-21T06:16:16.412Z,23.29
2022-08-21T06:16:50.426Z,23.31
2022-08-21T06:17:24.549Z,23.33
2022-08-21T06:17:57.826Z,23.34
2022-08-21T06:18:31.128Z,23.36
2022-08-21T06:19:04.771Z,23.37
2022-08-21T06:19:38.934Z,23.40
2022-08-21T06:20:12.272Z,23.39
2022-08-21T06:20:45.638Z,23.40
2022-08-21T06:21:19.523Z,23.42
2022-08-21T06:21:53.309Z,23.44
2022-08-21T06:22:26.784Z,23.47
2022-08-21T06:23:01.123Z,23.49
2022-08-21T06:23:35.296Z,23.52
2022-08-21T06:24:08.919Z,23.54
2022-08-21T06:24:44.926Z,23.55
2022-08-21T06:25:18.499Z,23.57
2022-08-21T06:25:51.862Z,23.58
2022-08-21T06:26:25.451Z,23.60
2022-08-21T06:26:59.005Z,23.61
2022-08-21T06:27:32.241Z,23.62
2022-08-21T06:28:11.231Z,23.64
2022-08-21T06:28:45.019Z,23.66
2022-08-21T06:29:18.886Z,23.68
2022-08-21T06:29:54.442Z,23.70
2022-08-21T06:30:27.769Z,23.73
2022-08-21T06:31:01.750Z,23.73
2022-08-21T06:31:35.097Z,23.74
2022-08-21T06:32:11.900Z,23.75
2022-08-21T06:32:45.727Z,23.77
2022-08-21T06:33:19.099Z,23.78
2022-08-21T06:33:52.488Z,23.80
2022-08-21T06:34:25.874Z,23.82
2022-08-21T06:34:59.032Z,23.85
2022-08-21T06:35:32.477Z,23.88
2022-08-21T06:36:06.093Z,23.90
2022-08-21T06:36:40.164Z,23.93
2022-08-21T06:37:14.176Z,23.96
2022-08-21T06:37:48.403Z,23.98
2022-08-21T06:38:22.418Z,24.01
2022-08-21T06:38:57.862Z,24.03
2022-08-21T06:39:33.687Z,24.04
2022-08-21T06:40:12.617Z,24.02
2022-08-21T06:40:47.652Z,24.00
2022-08-21T06:41:24.332Z,24.00
2022-08-21T06:42:01.305Z,24.02
2022-08-21T06:42:37.308Z,24.03
2022-08-21T06:43:15.485Z,24.03
2022-08-21T06:43:48.945Z,24.05
2022-08-21T06:44:22.712Z,24.07
2022-08-21T06:44:58.102Z,24.08
2022-08-21T06:45:32.581Z,24.07
2022-08-21T06:46:06.310Z,24.07
2022-08-21T06:46:39.528Z,24.07
2022-08-21T06:47:13.145Z,24.09
2022-08-21T06:47:46.449Z,24.10
2022-08-21T06:48:19.779Z,24.12
2022-08-21T06:48:53.781Z,24.14
2022-08-21T06:49:27.553Z,24.16
2022-08-21T06:50:01.041Z,24.18
2022-08-21T06:50:35.307Z,24.20
2022-08-21T06:51:08.767Z,24.22
2022-08-21T06:51:42.262Z,24.25
2022-08-21T06:52:15.796Z,24.27
2022-08-21T06:52:49.002Z,24.29
2022-08-21T06:53:23.068Z,24.31
2022-08-21T06:53:56.293Z,24.33
2022-08-21T06:54:33.800Z,24.36
2022-08-21T06:55:09.983Z,24.38
2022-08-21T06:55:44.340Z,24.40
2022-08-21T06:56:17.550Z,24.40
2022-08-21T06:56:50.691Z,24.39
2022-08-21T06:57:23.913Z,24.40
2022-08-21T06:57:57.169Z,24.41
2022-08-21T06:58:30.650Z,24.43
2022-08-21T06:59:04.309Z,24.44
2022-08-21T06:59:37.689Z,24.47
2022-08-21T07:00:12.018Z,24.49
2022-08-21T07:00:48.238Z,24.51
2022-08-21T07:01:25.867Z,24.53
2022-08-21T07:02:01.215Z,24.53
2022-08-21T07:02:35.110Z,24.55
2022-08-21T07:03:09.011Z,24.56
2022-08-21T07:03:44.682Z,24.58
2022-08-21T07:04:18.150Z,24.60
2022-08-21T07:04:52.322Z,24.61
2022-08-21T07:05:30.479Z,24.63
2022-08-21T07:06:05.236Z,24.66
2022-08-21T07:06:38.575Z,24.66
2022-08-21T07:07:11.922Z,24.67
2022-08-21T07:07:45.753Z,24.67
2022-08-21T07:08:19.329Z,24.68
2022-08-21T07:08:52.709Z,24.71
2022-08-21T07:09:28.083Z,24.72
2022-08-21T07:10:01.243Z,24.72
2022-08-21T07:10:34.537Z,24.74
2022-08-21T07:11:15.986Z,24.76
2022-08-21T07:11:52.861Z,24.77
2022-08-21T07:12:27.260Z,24.80
2022-08-21T07:13:01.644Z,24.81
2022-08-21T07:13:34.966Z,24.83
2022-08-21T07:14:08.290Z,24.85
2022-08-21T07:14:41.607Z,24.88
2022-08-21T07:15:14.775Z,24.90
2022-08-21T07:15:47.999Z,24.91
2022-08-21T07:16:22.790Z,24.93
2022-08-21T07:16:56.153Z,24.94
2022-08-21T07:17:29.569Z,24.94
2022-08-21T07:18:03.138Z,24.95
2022-08-21T07:18:36.783Z,24.97
2022-08-21T07:19:10.057Z,24.99
2022-08-21T07:19:43.290Z,25.00
2022-08-21T07:20:16.692Z,25.03
2022-08-21T07:20:50.408Z,25.05
2022-08-21T07:21:25.918Z,25.07
2022-08-21T07:22:02.822Z,25.09
2022-08-21T07:22:39.007Z,25.10
2022-08-21T07:23:17.585Z,25.11
2022-08-21T07:23:52.713Z,25.13
2022-08-21T07:24:26.264Z,25.14
2022-08-21T07:24:59.986Z,25.11
2022-08-21T07:25:33.882Z,25.11
2022-08-21T07:26:07.330Z,25.11
2022-08-21T07:26:41.244Z,25.11
2022-08-21T07:27:14.826Z,25.13
2022-08-21T07:27:49.381Z,25.14
2022-08-21T07:28:22.950Z,25.15
2022-08-21T07:28:56.489Z,25.17
2022-08-21T07:29:29.867Z,25.18
2022-08-21T07:30:03.873Z,25.20
2022-08-21T07:30:37.196Z,25.21